createdAt,value
2023-02-24T00:04:05.533Z,5.65
2023-02-24T00:09:31.181Z,7.16
2023-02-24T00:14:59.849Z,7.68
2023-02-24T00:20:22.829Z,6.78
2023-02-24T00:25:46.022Z,7.76
2023-02-24T00:31:20.757Z,6.90
2023-02-24T00:36:46.972Z,7.13
2023-02-24T00:42:12.151Z,7.13
2023-02-24T00:47:40.199Z,6.03
2023-02-24T00:53:03.217Z,4.00
2023-02-24T00:58:30.399Z,6.21
2023-02-24T01:04:00.522Z,6.08
2023-02-24T01:09:27.245Z,4.05
2023-02-24T01:14:54.384Z,6.07
2023-02-24T01:20:20.250Z,3.45
2023-02-24T01:25:50.403Z,4.77
2023-02-24T01:31:16.794Z,5.03
2023-02-24T01:36:52.272Z,6.16
2023-02-24T01:42:19.739Z,5.36
2023-02-24T01:47:45.359Z,4.95
2023-02-24T01:53:10.955Z,5.11
2023-02-24T01:58:37.094Z,6.33
2023-02-24T02:04:06.771Z,5.60
2023-02-24T02:09:32.539Z,5.50
2023-02-24T02:14:59.396Z,5.69
2023-02-24T02:20:42.456Z,5.51
2023-02-24T02:26:27.661Z,5.37
2023-02-24T02:32:31.724Z,5.53
2023-02-24T02:38:26.042Z,6.05
2023-02-24T02:44:40.594Z,6.17
2023-02-24T02:50:11.052Z,6.10
2023-02-24T02:55:44.326Z,6.47
2023-02-24T03:01:11.568Z,6.78
2023-02-24T03:06:38.744Z,6.27
2023-02-24T03:12:08.348Z,6.83
2023-02-24T03:17:42.390Z,5.22
2023-02-24T03:23:10.362Z,5.96
2023-02-24T03:28:44.436Z,5.77
2023-02-24T03:34:13.477Z,6.24
2023-02-24T03:39:37.502Z,6.40
2023-02-24T03:45:12.209Z,5.17
2023-02-24T03:50:53.450Z,5.66
2023-02-24T03:56:45.992Z,6.72
2023-02-24T04:02:24.242Z,6.35
2023-02-24T04:08:15.593Z,6.41
2023-02-24T04:13:45.661Z,6.66
2023-02-24T04:19:29.071Z,6.19
2023-02-24T04:24:56.375Z,6.96
2023-02-24T04:30:23.875Z,5.27
2023-02-24T04:35:54.422Z,5.49
2023-02-24T04:41:23.390Z,6.11
2023-02-24T04:46:47.484Z,6.05
2023-02-24T04:52:14.881Z,6.51
2023-02-24T04:57:38.604Z,6.58
2023-02-24T05:24:58.112Z,6.44
2023-02-24T05:30:21.829Z,6.20
2023-02-24T05:35:45.448Z,6.98
2023-02-24T05:41:16.950Z,6.50
2023-02-24T05:46:45.499Z,6.29
2023-02-24T05:52:10.086Z,6.14
2023-02-24T05:57:37.075Z,6.16
2023-02-24T06:03:08.297Z,6.92
2023-02-24T06:08:41.944Z,6.38
2023-02-24T06:14:07.218Z,6.88
2023-02-24T06:19:31.999Z,3.88
2023-02-24T06:24:56.792Z,6.19
2023-02-24T06:30:23.069Z,6.09
2023-02-24T06:36:39.801Z,6.76
2023-02-24T06:42:04.847Z,6.59
2023-02-24T06:47:29.416Z,6.61
2023-02-24T06:53:03.920Z,4.71
2023-02-24T06:59:01.290Z,4.87
2023-02-24T07:04:29.837Z,5.12
2023-02-24T07:10:02.055Z,5.99
2023-02-24T07:15:31.898Z,5.91
2023-02-24T07:20:56.268Z,5.80
2023-02-24T07:26:23.022Z,6.05
2023-02-24T07:31:48.733Z,6.28
2023-02-24T07:37:20.400Z,5.34
2023-02-24T07:42:56.082Z,6.02
2023-02-24T07:48:23.638Z,5.61
2023-02-24T07:53:57.197Z,5.31
2023-02-24T07:59:27.371Z,4.48
2023-02-24T08:04:53.696Z,5.45
2023-02-24T08:10:58.283Z,5.63
2023-02-24T08:17:40.999Z,4.65
2023-02-24T08:23:27.543Z,4.20
2023-02-24T08:29:07.496Z,3.49
2023-02-24T08:34:31.875Z,6.13
2023-02-24T08:40:50.173Z,6.58
2023-02-24T08:46:39.214Z,5.53
2023-02-24T08:52:07.129Z,5.92
2023-02-24T08:57:10.014Z,3.91
2023-02-24T09:02:19.221Z,6.30
2023-02-24T09:07:24.635Z,6.15
2023-02-24T09:12:30.282Z,6.44
2023-02-24T09:17:49.829Z,5.95
2023-02-24T09:23:00.836Z,5.63
2023-02-24T09:28:08.340Z,6.04
2023-02-24T09:33:22.140Z,6.25
2023-02-24T09:38:47.533Z,6.64
2023-02-24T09:44:45.766Z,6.51
2023-02-24T09:49:57.479Z,6.19
2023-02-24T09:55:19.688Z,5.19
2023-02-24T10:00:33.361Z,6.86
2023-02-24T10:05:51.565Z,4.89
2023-02-24T10:11:07.172Z,5.69
2023-02-24T10:16:26.647Z,6.22
2023-02-24T11:04:01.050Z,4.73
2023-02-24T11:09:18.378Z,6.55
2023-02-24T11:14:35.559Z,6.84
2023-02-24T11:19:45.687Z,5.30
2023-02-24T11:24:49.542Z,6.44
2023-02-24T11:30:08.423Z,6.82
2023-02-24T11:35:19.083Z,6.59
2023-02-24T11:40:25.761Z,6.55
2023-02-24T11:45:33.400Z,5.89
2023-02-24T11:50:50.037Z,5.78
2023-02-24T11:56:00.883Z,6.74
2023-02-24T12:01:10.602Z,5.97
2023-02-24T12:06:21.490Z,6.55
2023-02-24T12:11:36.944Z,6.92
2023-02-24T12:16:45.898Z,5.14
2023-02-24T12:21:54.439Z,6.72
2023-02-24T12:27:06.461Z,6.75
2023-02-24T12:32:20.943Z,6.22
2023-02-24T12:37:42.951Z,5.35
2023-02-24T12:42:56.752Z,5.72
2023-02-24T12:48:50.833Z,3.76
2023-02-24T12:54:18.456Z,4.58
2023-02-24T13:13:25.726Z,6.11
2023-02-24T13:18:45.290Z,6.79
2023-02-24T13:23:58.150Z,6.79
2023-02-24T13:29:03.261Z,6.64
2023-02-24T13:34:16.695Z,6.42
2023-02-24T13:39:24.178Z,6.75
2023-02-24T13:44:29.243Z,6.44
2023-02-24T13:49:40.401Z,6.62
2023-02-24T13:55:10.960Z,6.56
2023-02-24T14:00:24.878Z,6.78
2023-02-24T14:05:34.175Z,6.77
2023-02-24T14:10:38.731Z,6.96
2023-02-24T14:15:44.886Z,6.41
2023-02-24T14:20:49.035Z,6.98
2023-02-24T14:25:57.058Z,7.02
2023-02-24T14:31:08.738Z,7.14
2023-02-24T14:36:19.717Z,6.88
2023-02-24T14:41:24.313Z,7.25
2023-02-24T14:46:27.441Z,7.19
2023-02-24T14:51:35.497Z,7.31
2023-02-24T14:56:41.940Z,7.54
2023-02-24T15:01:48.927Z,7.62
2023-02-24T15:06:53.655Z,7.54
2023-02-24T15:11:56.648Z,7.54
2023-02-24T15:17:02.579Z,7.72
2023-02-24T15:22:19.814Z,7.77
2023-02-24T15:27:26.391Z,7.82
2023-02-24T15:32:31.841Z,7.80
2023-02-24T15:37:42.400Z,7.58
2023-02-24T15:42:51.001Z,7.71
2023-02-24T15:47:55.370Z,7.73
2023-02-24T15:53:01.772Z,7.77
2023-02-24T15:58:05.084Z,7.67
2023-02-24T16:03:07.722Z,7.35
2023-02-24T16:08:14.466Z,7.51
2023-02-24T16:13:20.935Z,7.55
2023-02-24T16:18:26.902Z,7.61
2023-02-24T16:23:40.570Z,7.66
2023-02-24T16:28:43.419Z,7.72
2023-02-24T16:33:54.481Z,7.76
2023-02-24T16:38:59.112Z,7.74
2023-02-24T16:44:01.692Z,7.70
2023-02-24T16:49:09.194Z,7.65
2023-02-24T16:54:13.262Z,7.58
2023-02-24T16:59:15.822Z,7.53
2023-02-24T17:04:18.474Z,7.52
2023-02-24T17:09:22.957Z,7.50
2023-02-24T17:14:25.943Z,7.54
2023-02-24T17:19:28.705Z,7.63
2023-02-24T17:24:32.704Z,7.43
2023-02-24T17:29:35.463Z,7.12
2023-02-24T17:34:38.072Z,7.19
2023-02-24T17:39:42.037Z,7.28
2023-02-24T17:44:45.214Z,7.41
2023-02-24T17:49:47.770Z,7.52
2023-02-24T17:54:52.206Z,7.55
2023-02-24T17:59:55.068Z,7.57
2023-02-24T18:04:57.826Z,7.58
2023-02-24T18:10:01.762Z,7.51
2023-02-24T18:15:09.333Z,7.55
2023-02-24T18:20:14.016Z,7.49
2023-02-24T18:25:18.030Z,7.47
2023-02-24T18:30:21.263Z,7.34
2023-02-24T18:35:24.178Z,7.28
2023-02-24T18:40:28.970Z,7.38
2023-02-24T18:45:31.774Z,7.28
2023-02-24T18:50:34.409Z,7.29
2023-02-24T18:55:38.310Z,7.32
2023-02-24T19:00:41.333Z,7.32
2023-02-24T19:05:44.100Z,7.37
2023-02-24T19:10:48.107Z,7.36
2023-02-24T19:15:51.216Z,7.35
2023-02-24T19:20:53.784Z,7.34
2023-02-24T19:25:57.712Z,7.26
2023-02-24T19:31:00.552Z,7.13
2023-02-24T19:36:03.362Z,6.97
2023-02-24T19:41:07.813Z,6.41
2023-02-24T19:46:12.752Z,6.12
2023-02-24T19:51:17.679Z,6.44
2023-02-24T19:56:24.350Z,6.40
2023-02-24T20:01:28.566Z,6.58
2023-02-24T20:06:33.807Z,6.74
2023-02-24T20:11:40.135Z,6.71
2023-02-24T20:16:43.836Z,6.83
2023-02-24T20:21:48.086Z,6.89
2023-02-24T20:26:54.485Z,6.88
2023-02-24T20:31:58.465Z,6.76
2023-02-24T20:37:03.890Z,7.06
2023-02-24T20:42:12.231Z,7.03
2023-02-24T20:47:18.804Z,7.00
2023-02-24T20:52:23.474Z,6.97
2023-02-24T20:57:30.309Z,6.85
2023-02-24T21:02:32.847Z,6.84
2023-02-24T21:07:36.778Z,6.80
2023-02-24T21:12:40.708Z,6.78
2023-02-24T21:17:43.346Z,6.72
2023-02-24T21:22:45.891Z,6.66
2023-02-24T21:27:49.936Z,6.63
2023-02-24T21:32:52.482Z,6.53
2023-02-24T21:37:54.996Z,6.58
2023-02-24T21:42:59.371Z,6.57
2023-02-24T21:48:01.919Z,6.52
2023-02-24T21:53:06.029Z,6.51
2023-02-24T21:58:10.251Z,6.47
2023-02-24T22:03:12.900Z,6.50
2023-02-24T22:08:15.873Z,6.52
2023-02-24T22:13:19.914Z,6.51
2023-02-24T22:18:22.519Z,6.44
2023-02-24T22:23:25.205Z,6.22
2023-02-24T22:28:29.093Z,6.31
2023-02-24T22:33:34.573Z,6.30
2023-02-24T22:38:38.754Z,6.34
2023-02-24T22:43:43.043Z,6.36
2023-02-24T22:48:46.296Z,6.33
2023-02-24T22:53:50.275Z,6.34
2023-02-24T22:58:55.233Z,6.31
2023-02-24T23:03:59.951Z,6.35
2023-02-24T23:09:03.933Z,6.37
2023-02-24T23:14:13.226Z,6.37
2023-02-24T23:19:18.071Z,6.33
2023-02-24T23:24:22.107Z,6.33
2023-02-24T23:29:27.412Z,6.32
2023-02-24T23:34:30.021Z,6.28
2023-02-24T23:39:32.761Z,6.32
2023-02-24T23:44:38.885Z,6.36
2023-02-24T23:49:48.226Z,6.31
2023-02-24T23:54:52.617Z,6.34
2023-02-24T23:59:56.491Z,6.31
